Time;durP1;ratioP1;P1;durP2;ratioP2;P2;SDS_P1;SDS_P2;PMS_P1;PMS_P2;Temp;Humidity;BMP_temperature;BMP_pressure;BME280_temperature;BME280_humidity;BME280_pressure;Samples;Min_cycle;Max_cycle;Signal;HPM_P1;HPM_P2
2022/10/31 00:02:19;;;;;;;20.35;9.32;;;13.20;99.90;;;;;;4969626;28;20043;-69
2022/10/31 00:04:44;;;;;;;19.23;8.90;;;13.20;99.90;;;;;;4969374;28;20050;-68
2022/10/31 00:07:10;;;;;;;17.83;9.00;;;13.10;99.90;;;;;;4942409;28;20039;-77
2022/10/31 00:09:36;;;;;;;22.10;8.63;;;13.00;99.90;;;;;;4944506;28;20565;-68
2022/10/31 00:12:02;;;;;;;17.55;8.40;;;13.00;99.90;;;;;;4945234;28;20046;-68
2022/10/31 00:14:27;;;;;;;16.00;8.88;;;12.90;99.90;;;;;;4953157;28;20536;-67
2022/10/31 00:16:53;;;;;;;19.55;8.73;;;12.90;99.90;;;;;;4969769;28;20081;-68
2022/10/31 00:19:19;;;;;;;23.90;9.20;;;12.80;99.90;;;;;;4969747;28;20089;-69
2022/10/31 00:21:44;;;;;;;22.77;9.88;;;12.80;99.90;;;;;;4969580;28;20085;-68
2022/10/31 00:24:10;;;;;;;19.15;9.05;;;12.70;99.90;;;;;;4952453;28;20039;-68
2022/10/31 00:26:36;;;;;;;17.48;8.40;;;12.70;99.90;;;;;;4971479;28;20475;-82
2022/10/31 00:29:02;;;;;;;21.60;8.95;;;12.70;99.90;;;;;;4953834;28;20050;-78
2022/10/31 00:31:29;;;;;;;17.40;9.18;;;12.70;99.90;;;;;;4954828;28;20448;-69
2022/10/31 00:33:54;;;;;;;22.98;9.65;;;12.70;99.90;;;;;;4970721;28;20408;-68
2022/10/31 00:36:20;;;;;;;19.98;9.50;;;12.70;99.90;;;;;;4953049;28;20047;-71
2022/10/31 00:38:47;;;;;;;18.00;9.45;;;12.70;99.90;;;;;;4952858;28;20097;-69
2022/10/31 00:41:15;;;;;;;20.95;8.82;;;12.70;99.90;;;;;;4951985;28;20041;-68
2022/10/31 00:43:42;;;;;;;21.50;9.52;;;12.70;99.90;;;;;;4969592;28;20059;-78
2022/10/31 00:46:07;;;;;;;18.73;9.45;;;12.60;99.90;;;;;;4969015;28;20057;-68
2022/10/31 00:48:33;;;;;;;23.25;9.70;;;12.60;99.90;;;;;;4951808;28;20376;-68
2022/10/31 00:50:59;;;;;;;18.42;9.60;;;12.60;99.90;;;;;;4968605;28;20485;-68
2022/10/31 00:53:25;;;;;;;25.08;10.52;;;12.60;99.90;;;;;;4969902;28;20046;-68
2022/10/31 00:55:51;;;;;;;14.95;8.95;;;12.60;99.90;;;;;;4951428;28;20524;-68
2022/10/31 00:58:16;;;;;;;19.40;9.85;;;12.50;99.90;;;;;;4951544;28;20590;-68
2022/10/31 01:00:42;;;;;;;20.45;10.10;;;12.60;99.90;;;;;;4967850;28;20039;-69
2022/10/31 01:03:08;;;;;;;24.05;9.57;;;12.50;99.90;;;;;;4963135;28;20040;-68
2022/10/31 01:05:34;;;;;;;20.08;9.85;;;12.50;99.90;;;;;;4959320;28;20125;-68
2022/10/31 01:08:00;;;;;;;22.48;10.02;;;12.50;99.90;;;;;;4951008;28;20557;-69
2022/10/31 01:10:25;;;;;;;23.33;9.75;;;12.50;99.90;;;;;;4959044;28;20418;-68
2022/10/31 01:12:51;;;;;;;23.13;10.63;;;12.50;99.90;;;;;;4965633;28;20045;-68
2022/10/31 01:15:20;;;;;;;19.38;9.38;;;12.50;99.90;;;;;;4969309;28;20054;-70
2022/10/31 01:17:45;;;;;;;21.95;9.70;;;12.50;99.90;;;;;;4967653;28;20065;-68
2022/10/31 01:20:13;;;;;;;21.38;10.35;;;12.50;99.90;;;;;;4955600;28;20300;-68
2022/10/31 01:22:39;;;;;;;19.48;9.85;;;12.40;99.90;;;;;;4952032;28;20133;-68
2022/10/31 01:25:05;;;;;;;17.58;10.45;;;12.40;99.90;;;;;;4967744;28;20125;-68
2022/10/31 01:27:31;;;;;;;26.90;10.25;;;12.30;99.90;;;;;;4968054;28;20051;-68
2022/10/31 01:29:57;;;;;;;24.58;10.45;;;12.30;99.90;;;;;;4967366;28;20105;-68
2022/10/31 01:32:23;;;;;;;14.18;9.13;;;12.30;99.90;;;;;;4968548;28;20058;-68
2022/10/31 01:34:49;;;;;;;26.00;9.85;;;12.30;99.90;;;;;;4966614;28;20130;-68
2022/10/31 01:37:15;;;;;;;13.95;8.77;;;12.30;99.90;;;;;;4949192;28;20046;-69
2022/10/31 01:39:40;;;;;;;26.65;9.48;;;12.20;99.90;;;;;;4950605;28;20130;-68
2022/10/31 01:42:06;;;;;;;23.40;10.05;;;12.20;99.90;;;;;;4953919;28;20397;-72
2022/10/31 01:44:32;;;;;;;22.17;9.27;;;12.20;99.90;;;;;;4968081;28;20101;-68
2022/10/31 01:47:44;;;;;;;19.45;10.00;;;12.20;99.90;;;;;;4964147;28;20125;-68
2022/10/31 01:50:25;;;;;;;21.02;9.90;;;12.20;99.90;;;;;;4967201;28;20068;-68
2022/10/31 01:52:52;;;;;;;21.23;10.77;;;12.20;99.90;;;;;;4968489;28;20407;-77
2022/10/31 01:55:27;;;;;;;22.23;10.25;;;12.20;99.90;;;;;;4967441;28;20031;-81
2022/10/31 01:57:57;;;;;;;20.60;9.88;;;12.20;99.90;;;;;;4968045;28;20043;-68
2022/10/31 02:00:23;;;;;;;20.42;10.50;;;12.20;99.90;;;;;;4951852;28;20501;-69
2022/10/31 02:02:50;;;;;;;20.17;10.25;;;12.20;99.90;;;;;;4967609;28;20073;-69
2022/10/31 02:05:22;;;;;;;22.10;10.30;;;12.20;99.90;;;;;;4965260;28;20147;-68
2022/10/31 02:08:13;;;;;;;22.52;10.25;;;12.20;99.90;;;;;;4967042;28;20053;-68
2022/10/31 02:10:42;;;;;;;21.77;10.27;;;12.20;99.90;;;;;;4948849;28;20046;-68
2022/10/31 02:13:08;;;;;;;26.35;9.38;;;12.20;99.90;;;;;;4949466;28;20448;-68
2022/10/31 02:15:37;;;;;;;18.75;10.30;;;12.20;99.90;;;;;;4953036;28;20197;-81
2022/10/31 02:18:04;;;;;;;19.90;9.75;;;12.20;99.90;;;;;;4964801;28;20046;-77
2022/10/31 02:20:47;;;;;;;17.77;9.00;;;12.20;99.90;;;;;;4967271;28;20085;-81
2022/10/31 02:23:19;;;;;;;21.77;9.05;;;12.20;99.90;;;;;;4949073;28;20479;-68
2022/10/31 02:26:08;;;;;;;22.85;10.10;;;12.10;99.90;;;;;;4949979;28;20047;-68
2022/10/31 02:29:02;;;;;;;18.87;9.70;;;12.10;99.90;;;;;;4967112;28;20448;-69
2022/10/31 02:31:53;;;;;;;20.95;9.38;;;12.10;99.90;;;;;;4967075;28;20078;-69
2022/10/31 02:35:06;;;;;;;21.55;9.95;;;12.00;99.90;;;;;;4967212;28;20086;-83
2022/10/31 02:37:49;;;;;;;17.83;9.10;;;12.00;99.90;;;;;;4948305;28;20434;-68
2022/10/31 02:40:27;;;;;;;17.05;9.05;;;12.00;99.90;;;;;;4967143;28;20058;-68
2022/10/31 02:43:12;;;;;;;26.42;9.82;;;11.90;99.90;;;;;;4956864;28;20051;-82
2022/10/31 02:45:44;;;;;;;20.80;10.43;;;11.90;99.90;;;;;;4968053;28;20050;-68
2022/10/31 02:48:14;;;;;;;18.30;9.90;;;11.90;99.90;;;;;;4951170;28;20486;-68
2022/10/31 02:50:43;;;;;;;16.40;9.20;;;11.80;99.90;;;;;;4955005;28;20510;-69
2022/10/31 02:53:13;;;;;;;15.32;10.23;;;11.80;99.90;;;;;;4966700;28;20129;-68
2022/10/31 02:55:48;;;;;;;31.42;10.73;;;11.80;99.90;;;;;;4959976;28;20055;-69
2022/10/31 02:58:18;;;;;;;19.75;9.88;;;11.80;99.90;;;;;;4967332;28;20054;-69
2022/10/31 03:01:11;;;;;;;18.73;9.90;;;11.80;99.90;;;;;;4966437;28;20097;-68
2022/10/31 03:03:47;;;;;;;18.13;10.23;;;11.80;99.90;;;;;;4964645;28;20249;-68
2022/10/31 03:06:33;;;;;;;20.17;9.70;;;11.70;99.90;;;;;;4959616;28;20113;-68
2022/10/31 03:09:05;;;;;;;23.75;10.05;;;11.70;99.90;;;;;;4957439;28;20383;-68
2022/10/31 03:11:52;;;;;;;20.67;10.27;;;11.70;99.90;;;;;;4956046;28;20125;-68
2022/10/31 03:14:24;;;;;;;17.88;9.35;;;11.70;99.90;;;;;;4949309;28;20381;-68
2022/10/31 03:16:52;;;;;;;19.48;9.02;;;11.70;99.90;;;;;;4949500;28;20054;-68
2022/10/31 03:19:32;;;;;;;17.20;9.25;;;11.60;99.90;;;;;;4949225;28;20053;-68
2022/10/31 03:21:58;;;;;;;;;;;11.50;99.90;;;;;;4949789;28;20512;-68
2022/10/31 03:24:31;;;;;;;16.20;9.75;;;11.40;99.90;;;;;;4966926;28;19921;-68
2022/10/31 03:26:59;;;;;;;18.33;9.60;;;11.30;99.90;;;;;;4966426;28;20053;-68
2022/10/31 03:29:32;;;;;;;15.27;8.52;;;11.20;99.90;;;;;;4966696;28;20054;-67
2022/10/31 03:32:02;;;;;;;14.55;9.48;;;11.10;99.90;;;;;;4954566;28;20046;-69
2022/10/31 03:34:29;;;;;;;23.67;9.00;;;11.10;99.90;;;;;;4966050;28;20525;-68
2022/10/31 03:36:59;;;;;;;12.52;7.95;;;11.00;99.90;;;;;;4966980;28;20382;-68
2022/10/31 03:39:26;;;;;;;13.10;8.18;;;10.90;99.90;;;;;;4949053;28;20859;-68
2022/10/31 03:42:20;;;;;;;10.70;7.15;;;10.90;99.90;;;;;;4967630;28;20055;-68
2022/10/31 03:45:00;;;;;;;14.43;7.97;;;10.80;99.90;;;;;;4966006;28;20066;-68
2022/10/31 03:47:26;;;;;;;13.00;8.68;;;10.80;99.90;;;;;;4949223;28;20051;-68
2022/10/31 03:49:53;;;;;;;16.52;8.40;;;10.80;99.90;;;;;;4966493;28;20493;-68
2022/10/31 03:52:49;;;;;;;16.48;8.35;;;10.80;99.90;;;;;;4966264;28;20079;-76
2022/10/31 03:55:24;;;;;;;15.30;8.63;;;10.70;99.90;;;;;;4966848;28;20045;-81
2022/10/31 03:57:57;;;;;;;16.08;8.20;;;10.70;99.90;;;;;;4966881;28;20499;-84
2022/10/31 04:00:23;;;;;;;18.58;9.10;;;10.70;99.90;;;;;;4966383;28;20050;-70
2022/10/31 04:02:58;;;;;;;13.45;8.38;;;10.60;99.90;;;;;;4966558;28;20059;-68
2022/10/31 04:05:24;;;;;;;15.63;9.10;;;10.50;99.90;;;;;;4958602;28;20757;-84
2022/10/31 04:07:54;;;;;;;19.45;9.70;;;10.50;99.90;;;;;;4950078;28;20347;-68
2022/10/31 04:10:22;;;;;;;14.88;9.38;;;10.50;99.90;;;;;;4965412;28;20397;-68
2022/10/31 04:12:53;;;;;;;16.48;9.63;;;10.50;99.90;;;;;;4969683;28;20455;-67
2022/10/31 04:15:19;;;;;;;20.63;9.88;;;10.50;99.90;;;;;;4969838;28;20527;-68
2022/10/31 04:17:49;;;;;;;21.35;10.43;;;10.50;99.90;;;;;;4969800;28;20042;-68
2022/10/31 04:20:18;;;;;;;23.05;10.63;;;10.50;99.90;;;;;;4970082;28;20445;-84
2022/10/31 04:22:44;;;;;;;19.08;9.88;;;10.50;99.90;;;;;;4969281;28;20569;-81
2022/10/31 04:25:09;;;;;;;16.20;9.18;;;10.40;99.90;;;;;;4970895;28;20402;-67
2022/10/31 04:27:35;;;;;;;19.17;9.70;;;10.40;99.90;;;;;;4935508;28;20385;-68
2022/10/31 04:30:01;;;;;;;14.10;9.88;;;10.40;99.90;;;;;;4969897;28;20054;-68
2022/10/31 04:32:26;;;;;;;15.48;9.63;;;10.40;99.90;;;;;;4969321;28;20133;-68
2022/10/31 04:34:52;;;;;;;16.67;10.07;;;10.40;99.90;;;;;;4952298;28;20235;-67
2022/10/31 04:37:18;;;;;;;17.13;9.73;;;10.40;99.90;;;;;;4969671;28;20039;-68
2022/10/31 04:39:43;;;;;;;24.55;9.73;;;10.40;99.90;;;;;;4964878;28;20054;-67
2022/10/31 04:42:09;;;;;;;18.20;10.65;;;10.40;99.90;;;;;;4969710;28;20050;-68
2022/10/31 04:44:35;;;;;;;17.60;10.20;;;10.40;99.90;;;;;;4951269;28;20408;-76
2022/10/31 04:47:01;;;;;;;15.57;9.60;;;10.40;99.90;;;;;;4952513;28;20114;-68
2022/10/31 04:49:26;;;;;;;17.35;9.77;;;10.30;99.90;;;;;;4968778;28;20105;-67
2022/10/31 04:51:52;;;;;;;19.08;8.65;;;10.30;99.90;;;;;;4951926;28;20711;-68
2022/10/31 04:54:18;;;;;;;13.80;9.18;;;10.30;99.90;;;;;;4951982;28;20466;-69
2022/10/31 04:56:43;;;;;;;15.13;8.88;;;10.20;99.90;;;;;;4968689;28;20042;-67
2022/10/31 04:59:09;;;;;;;15.85;9.05;;;10.10;99.90;;;;;;4952194;28;20043;-68
2022/10/31 05:01:35;;;;;;;16.17;9.40;;;10.10;99.90;;;;;;4968650;28;20118;-67
2022/10/31 05:04:00;;;;;;;13.85;9.13;;;10.10;99.90;;;;;;4969541;28;20170;-69
2022/10/31 05:06:26;;;;;;;13.77;9.65;;;10.00;99.90;;;;;;4950928;28;20132;-80
2022/10/31 05:08:52;;;;;;;17.83;10.10;;;10.00;99.90;;;;;;4951916;28;20047;-76
2022/10/31 05:11:18;;;;;;;18.98;9.98;;;10.00;99.90;;;;;;4939025;28;20043;-67
2022/10/31 05:13:43;;;;;;;17.67;9.95;;;10.00;99.90;;;;;;4970064;28;20497;-67
2022/10/31 05:16:09;;;;;;;18.58;10.48;;;10.00;99.90;;;;;;4953572;28;20049;-67
2022/10/31 05:18:35;;;;;;;15.63;9.98;;;10.00;99.90;;;;;;4968727;28;20086;-68
2022/10/31 05:21:00;;;;;;;18.05;10.40;;;10.00;99.90;;;;;;4952067;28;20440;-67
2022/10/31 05:23:26;;;;;;;17.23;10.63;;;10.00;99.90;;;;;;4950001;28;20049;-68
2022/10/31 05:25:52;;;;;;;27.42;10.27;;;10.00;99.90;;;;;;4968710;28;20057;-68
2022/10/31 05:28:17;;;;;;;17.98;10.07;;;10.00;99.90;;;;;;4968512;28;20062;-68
2022/10/31 05:30:43;;;;;;;16.30;9.82;;;10.00;99.90;;;;;;4951257;28;20043;-68
2022/10/31 05:33:09;;;;;;;20.00;10.77;;;9.90;99.90;;;;;;4968124;28;20047;-68
2022/10/31 05:35:35;;;;;;;20.83;10.52;;;9.90;99.90;;;;;;4951056;28;20474;-68
2022/10/31 05:38:00;;;;;;;20.50;11.57;;;9.90;99.90;;;;;;4951321;28;20054;-67
2022/10/31 05:40:27;;;;;;;16.30;10.13;;;9.90;99.90;;;;;;4967764;28;20050;-72
2022/10/31 05:42:55;;;;;;;22.58;11.45;;;9.90;99.90;;;;;;4969015;28;20082;-68
2022/10/31 05:45:21;;;;;;;20.02;10.60;;;9.90;99.90;;;;;;4967635;28;20051;-68
2022/10/31 05:48:05;;;;;;;24.98;9.95;;;9.90;99.90;;;;;;4951007;28;20197;-68
2022/10/31 05:50:31;;;;;;;24.13;10.55;;;9.90;99.90;;;;;;4968336;28;20050;-68
2022/10/31 05:53:03;;;;;;;19.15;10.38;;;9.90;99.90;;;;;;4967891;28;20544;-68
2022/10/31 05:55:29;;;;;;;19.48;10.20;;;9.90;99.90;;;;;;4954797;28;20449;-68
2022/10/31 05:57:55;;;;;;;15.85;9.75;;;9.90;99.90;;;;;;4950401;28;20050;-68
2022/10/31 06:00:22;;;;;;;17.67;9.65;;;9.90;99.90;;;;;;4968531;28;20043;-68
2022/10/31 06:02:48;;;;;;;14.90;9.10;;;9.90;99.90;;;;;;4933590;28;20425;-68
2022/10/31 06:05:14;;;;;;;20.13;8.00;;;9.90;99.90;;;;;;4968570;28;20054;-68
2022/10/31 06:07:39;;;;;;;11.30;7.60;;;9.90;99.90;;;;;;4967693;28;20119;-68
2022/10/31 06:10:07;;;;;;;11.02;7.38;;;9.90;99.90;;;;;;4940820;29;20146;-68
2022/10/31 06:12:37;;;;;;;10.30;7.90;;;9.80;99.90;;;;;;4946962;28;20050;-68
2022/10/31 06:15:05;;;;;;;9.90;7.70;;;9.80;99.90;;;;;;4967466;28;20502;-68
2022/10/31 06:17:31;;;;;;;12.23;7.63;;;9.80;99.90;;;;;;4967601;28;20501;-70
2022/10/31 06:19:57;;;;;;;19.45;8.98;;;9.80;99.90;;;;;;4967326;28;20122;-68
2022/10/31 06:22:22;;;;;;;14.43;8.55;;;9.70;99.90;;;;;;4967994;28;20121;-68
2022/10/31 06:24:48;;;;;;;17.45;8.75;;;9.80;99.90;;;;;;4966667;28;20566;-81
2022/10/31 06:27:14;;;;;;;13.40;8.30;;;9.70;99.90;;;;;;4950386;28;20054;-79
2022/10/31 06:29:40;;;;;;;16.30;8.70;;;9.70;99.90;;;;;;4965888;28;20125;-68
2022/10/31 06:32:05;;;;;;;17.00;9.15;;;9.70;99.90;;;;;;4933183;28;20113;-68
2022/10/31 06:34:31;;;;;;;15.55;8.68;;;9.70;99.90;;;;;;4933821;28;20046;-68
2022/10/31 06:36:56;;;;;;;18.00;8.63;;;9.70;99.90;;;;;;4966941;28;20449;-68
2022/10/31 06:39:22;;;;;;;16.38;8.57;;;9.60;99.90;;;;;;4950599;28;20053;-68
2022/10/31 06:41:48;;;;;;;17.73;9.55;;;9.60;99.90;;;;;;4949770;28;20097;-68
2022/10/31 06:44:14;;;;;;;21.52;10.57;;;9.60;99.90;;;;;;4968149;28;20401;-68
2022/10/31 06:46:39;;;;;;;17.77;11.00;;;9.60;99.90;;;;;;4949306;28;20464;-68
2022/10/31 06:49:05;;;;;;;14.93;9.93;;;9.70;99.90;;;;;;4967303;28;20110;-67
2022/10/31 06:51:31;;;;;;;17.83;10.27;;;9.70;99.90;;;;;;4966076;28;20058;-68
2022/10/31 06:53:56;;;;;;;15.80;9.52;;;9.70;99.90;;;;;;4966664;28;20057;-67
2022/10/31 06:56:22;;;;;;;14.90;9.15;;;9.80;99.90;;;;;;4967785;28;20039;-67
2022/10/31 06:58:48;;;;;;;14.10;8.20;;;9.80;99.90;;;;;;4966406;28;20516;-68
2022/10/31 07:01:13;;;;;;;16.35;9.40;;;9.80;99.90;;;;;;4950534;28;20074;-69
2022/10/31 07:03:39;;;;;;;10.63;7.95;;;9.80;99.90;;;;;;4966267;28;20460;-70
2022/10/31 07:06:05;;;;;;;17.52;8.25;;;9.90;99.90;;;;;;4950198;28;20061;-67
2022/10/31 07:08:31;;;;;;;16.35;8.45;;;9.90;99.90;;;;;;4949786;28;20130;-68
2022/10/31 07:10:57;;;;;;;12.75;8.25;;;9.90;99.90;;;;;;4953623;28;20054;-68
2022/10/31 07:13:26;;;;;;;11.98;9.20;;;9.90;99.90;;;;;;4950314;28;20129;-68
2022/10/31 07:16:00;;;;;;;17.33;9.07;;;9.90;99.90;;;;;;4966210;28;20494;-68
2022/10/31 07:18:26;;;;;;;14.52;9.35;;;10.00;99.90;;;;;;4950121;28;20114;-67
2022/10/31 07:20:52;;;;;;;16.10;9.55;;;10.10;99.90;;;;;;4948544;28;20047;-68
2022/10/31 07:23:18;;;;;;;20.08;10.35;;;10.10;99.90;;;;;;4950231;28;20043;-67
2022/10/31 07:25:44;;;;;;;18.55;10.60;;;10.10;99.90;;;;;;4965583;28;20084;-68
2022/10/31 07:28:10;;;;;;;20.35;10.70;;;10.10;99.90;;;;;;4949933;28;20094;-68
2022/10/31 07:30:37;;;;;;;22.73;11.38;;;10.10;99.90;;;;;;4917977;28;20046;-67
2022/10/31 07:33:04;;;;;;;18.02;10.63;;;10.20;99.90;;;;;;4965554;28;20070;-68
2022/10/31 07:35:30;;;;;;;20.45;11.10;;;10.30;99.90;;;;;;4950597;28;20039;-68
2022/10/31 07:37:56;;;;;;;21.02;12.88;;;10.30;99.90;;;;;;4965491;28;20041;-68
2022/10/31 07:40:23;;;;;;;20.85;11.32;;;10.40;99.90;;;;;;4967096;28;20449;-69
2022/10/31 07:42:51;;;;;;;24.83;11.93;;;10.40;99.90;;;;;;4953129;28;20051;-68
2022/10/31 07:45:19;;;;;;;17.73;12.18;;;10.50;99.90;;;;;;4966308;28;20055;-68
2022/10/31 07:47:47;;;;;;;20.75;12.35;;;10.60;99.90;;;;;;4969844;28;20504;-83
2022/10/31 07:50:15;;;;;;;18.08;11.60;;;10.60;99.90;;;;;;4968998;28;20046;-68
2022/10/31 07:52:41;;;;;;;20.17;11.40;;;10.80;99.90;;;;;;4960730;28;20113;-82
2022/10/31 07:55:07;;;;;;;28.98;10.88;;;10.80;99.90;;;;;;4956929;28;20043;-69
2022/10/31 07:57:33;;;;;;;11.20;9.15;;;10.90;99.90;;;;;;4953472;28;20050;-68
2022/10/31 07:59:59;;;;;;;16.92;10.10;;;10.90;99.90;;;;;;4968698;28;20477;-68
2022/10/31 08:02:25;;;;;;;17.98;10.38;;;10.90;99.90;;;;;;4952344;28;20516;-68
2022/10/31 08:04:51;;;;;;;19.55;10.30;;;10.90;99.90;;;;;;4969237;28;20101;-68
2022/10/31 08:07:17;;;;;;;19.67;10.80;;;11.00;99.90;;;;;;4969187;28;20051;-73
2022/10/31 08:09:43;;;;;;;17.02;10.63;;;11.20;99.90;;;;;;4966950;28;20370;-68
2022/10/31 08:12:09;;;;;;;18.38;12.20;;;11.30;99.90;;;;;;4934008;29;20049;-74
2022/10/31 08:14:34;;;;;;;28.67;11.73;;;11.40;99.90;;;;;;4955173;28;20122;-83
2022/10/31 08:17:00;;;;;;;15.25;11.50;;;11.50;99.90;;;;;;4956488;28;20038;-68
2022/10/31 08:19:26;;;;;;;20.95;12.48;;;11.70;99.90;;;;;;4939123;28;20054;-68
2022/10/31 08:21:52;;;;;;;24.30;12.43;;;11.80;99.90;;;;;;4957526;28;20043;-68
2022/10/31 08:24:18;;;;;;;16.60;11.10;;;11.90;99.90;;;;;;4968210;28;20122;-69
2022/10/31 08:26:44;;;;;;;20.27;11.90;;;12.00;99.90;;;;;;4968728;28;20133;-67
2022/10/31 08:29:10;;;;;;;19.02;11.50;;;12.00;99.90;;;;;;4968675;28;20464;-68
2022/10/31 08:31:36;;;;;;;19.83;11.75;;;12.10;99.90;;;;;;4963903;28;20060;-68
2022/10/31 08:34:02;;;;;;;16.15;11.20;;;12.10;99.90;;;;;;4968887;28;20548;-68
2022/10/31 08:36:28;;;;;;;19.38;12.68;;;12.20;99.90;;;;;;4969870;28;20049;-68
2022/10/31 08:38:54;;;;;;;16.73;11.02;;;12.30;99.90;;;;;;4965694;28;20039;-70
2022/10/31 08:41:20;;;;;;;16.65;11.27;;;12.40;99.90;;;;;;4948826;28;20051;-74
2022/10/31 08:43:45;;;;;;;17.30;11.52;;;12.40;99.90;;;;;;4937986;28;20054;-68
2022/10/31 08:46:11;;;;;;;16.45;11.63;;;12.40;99.90;;;;;;4966892;28;20038;-67
2022/10/31 08:48:37;;;;;;;15.93;11.75;;;12.50;99.90;;;;;;4967612;28;20047;-68
2022/10/31 08:51:03;;;;;;;16.80;11.38;;;12.50;99.90;;;;;;4943837;28;20105;-69
2022/10/31 08:53:29;;;;;;;16.88;12.52;;;12.60;99.90;;;;;;4958126;28;20524;-68
2022/10/31 08:55:56;;;;;;;17.70;12.23;;;12.60;99.90;;;;;;4967389;28;20078;-76
2022/10/31 08:58:22;;;;;;;20.23;11.85;;;12.60;99.90;;;;;;4968248;28;20068;-72
2022/10/31 09:00:50;;;;;;;19.73;11.93;;;12.60;99.90;;;;;;4969168;28;20389;-69
2022/10/31 09:03:24;;;;;;;21.33;13.43;;;12.70;99.90;;;;;;4958431;28;20104;-68
2022/10/31 09:05:54;;;;;;;22.05;12.23;;;12.70;99.90;;;;;;4968672;28;20049;-68
2022/10/31 09:08:20;;;;;;;19.25;11.68;;;12.80;99.90;;;;;;4965503;28;20039;-80
2022/10/31 09:10:45;;;;;;;14.05;10.95;;;12.80;99.90;;;;;;4950696;28;20117;-68
2022/10/31 09:13:15;;;;;;;20.70;11.32;;;12.80;99.90;;;;;;4952101;28;20074;-70
2022/10/31 09:15:43;;;;;;;17.07;11.87;;;12.80;99.90;;;;;;4953141;28;20039;-72
2022/10/31 09:18:10;;;;;;;17.48;11.23;;;12.90;99.90;;;;;;4953086;28;20051;-70
2022/10/31 09:20:37;;;;;;;17.08;10.68;;;12.90;99.90;;;;;;4947103;28;20039;-70
2022/10/31 09:23:06;;;;;;;15.70;10.88;;;13.00;99.90;;;;;;4949869;28;20057;-70
2022/10/31 09:25:34;;;;;;;19.13;10.45;;;13.00;99.90;;;;;;4967573;28;20118;-76
2022/10/31 09:28:02;;;;;;;23.05;11.13;;;13.00;99.90;;;;;;4952455;28;20050;-76
2022/10/31 09:30:29;;;;;;;14.20;9.55;;;13.00;99.90;;;;;;4959127;28;20147;-70
2022/10/31 09:32:56;;;;;;;19.67;9.98;;;13.00;99.90;;;;;;4950850;28;20050;-70
2022/10/31 09:35:23;;;;;;;16.65;9.77;;;13.00;99.90;;;;;;4950526;28;20086;-71
2022/10/31 09:37:58;;;;;;;18.40;8.93;;;13.10;99.90;;;;;;4961750;28;20047;-70
2022/10/31 09:40:38;;;;;;;13.63;8.38;;;13.10;99.90;;;;;;4953418;28;20054;-70
2022/10/31 09:43:31;;;;;;;10.05;8.15;;;13.10;99.90;;;;;;4968446;28;20133;-70
2022/10/31 09:46:18;;;;;;;12.52;8.10;;;13.10;99.90;;;;;;4970469;28;20165;-71
2022/10/31 09:49:19;;;;;;;15.48;8.85;;;13.10;99.90;;;;;;4949396;29;20408;-71
2022/10/31 09:51:53;;;;;;;13.68;8.50;;;13.20;99.90;;;;;;4939071;28;20058;-71
2022/10/31 09:54:32;;;;;;;14.90;9.07;;;13.20;99.90;;;;;;4967641;28;20500;-71
2022/10/31 09:57:00;;;;;;;13.32;8.55;;;13.20;99.90;;;;;;4951478;28;20054;-71
2022/10/31 09:59:34;;;;;;;12.60;7.40;;;13.30;99.90;;;;;;4965601;28;20054;-71
2022/10/31 10:02:12;;;;;;;11.95;8.45;;;13.40;99.90;;;;;;4948688;28;20043;-71
2022/10/31 10:04:47;;;;;;;14.77;9.15;;;13.40;99.90;;;;;;4965437;28;20509;-70
2022/10/31 10:07:32;;;;;;;17.33;9.27;;;13.50;99.90;;;;;;4948581;28;20043;-71
2022/10/31 10:10:12;;;;;;;13.45;9.25;;;13.60;99.90;;;;;;4955133;28;20069;-70
2022/10/31 10:12:44;;;;;;;13.65;9.07;;;13.60;99.90;;;;;;4931302;28;20568;-71
2022/10/31 10:15:21;;;;;;;17.70;8.32;;;13.70;99.90;;;;;;4947430;28;20046;-71
2022/10/31 10:17:54;;;;;;;17.10;8.75;;;13.80;99.90;;;;;;4942719;28;20058;-70
2022/10/31 10:20:51;;;;;;;15.75;8.70;;;13.80;99.90;;;;;;4932181;28;20101;-70
2022/10/31 10:23:40;;;;;;;17.75;9.07;;;13.90;99.90;;;;;;4948008;28;20058;-71
2022/10/31 10:26:21;;;;;;;14.05;8.73;;;14.00;99.90;;;;;;4946292;28;20062;-71
2022/10/31 10:29:06;;;;;;;13.88;8.48;;;14.10;99.90;;;;;;4946472;28;20046;-70
2022/10/31 10:31:40;;;;;;;15.75;8.70;;;14.10;99.90;;;;;;4952698;28;20086;-71
2022/10/31 10:34:20;;;;;;;12.23;8.35;;;14.20;99.90;;;;;;4966589;28;20054;-69
2022/10/31 10:36:56;;;;;;;16.20;8.60;;;14.30;99.90;;;;;;4949046;28;20129;-69
2022/10/31 10:39:25;;;;;;;13.25;8.98;;;14.40;99.90;;;;;;4948960;28;20047;-70
2022/10/31 10:47:42;;;;;;;16.35;8.32;;;14.80;99.90;;;;;;4965067;28;20050;-70
2022/10/31 10:50:19;;;;;;;12.57;7.65;;;14.90;99.90;;;;;;4964915;28;20473;-69
2022/10/31 10:53:31;;;;;;;20.58;8.43;;;14.90;99.90;;;;;;4949041;28;20055;-73
2022/10/31 10:56:10;;;;;;;16.05;7.88;;;14.80;99.90;;;;;;4949354;28;20059;-70
2022/10/31 10:58:37;;;;;;;15.57;7.78;;;14.90;99.90;;;;;;4965250;28;20073;-70
2022/10/31 11:01:10;;;;;;;15.45;6.88;;;14.90;99.90;;;;;;4953240;28;20688;-70
2022/10/31 11:03:36;;;;;;;16.27;7.38;;;14.90;99.90;;;;;;4931662;28;20050;-74
2022/10/31 11:06:02;;;;;;;12.68;7.05;;;15.00;99.90;;;;;;4942843;28;20062;-70
2022/10/31 11:08:30;;;;;;;12.70;7.03;;;15.10;99.90;;;;;;4943210;28;20497;-70
2022/10/31 11:11:01;;;;;;;11.30;6.50;;;15.10;99.90;;;;;;4957648;28;20170;-69
2022/10/31 11:13:27;;;;;;;13.20;6.00;;;15.20;99.90;;;;;;4948669;28;20643;-86
2022/10/31 11:16:13;;;;;;;13.50;6.65;;;15.40;99.90;;;;;;4943153;28;20039;-69
2022/10/31 11:18:45;;;;;;;18.50;7.35;;;15.40;99.90;;;;;;4947909;28;20108;-70
2022/10/31 11:21:33;;;;;;;16.23;6.78;;;15.50;99.90;;;;;;4949895;28;20055;-70
2022/10/31 11:24:20;;;;;;;16.20;7.10;;;15.60;99.90;;;;;;4967740;28;20055;-70
2022/10/31 11:26:48;;;;;;;13.27;7.47;;;15.70;99.90;;;;;;4967267;28;20074;-83
2022/10/31 11:29:24;;;;;;;15.18;7.30;;;15.70;99.90;;;;;;4934491;28;20051;-84
2022/10/31 11:31:55;;;;;;;17.70;6.55;;;15.70;99.90;;;;;;4968140;28;20046;-78
2022/10/31 11:34:43;;;;;;;9.43;6.75;;;15.60;99.90;;;;;;4954322;28;20055;-70
2022/10/31 11:37:39;;;;;;;13.65;7.90;;;15.60;99.90;;;;;;4957319;28;20047;-69
2022/10/31 11:40:06;;;;;;;20.08;7.70;;;15.50;99.90;;;;;;4953243;28;20150;-70
2022/10/31 11:42:39;;;;;;;12.07;6.90;;;15.40;99.90;;;;;;4954597;28;20504;-69
2022/10/31 11:45:23;;;;;;;20.00;8.20;;;15.40;99.90;;;;;;4953284;28;20055;-70
2022/10/31 11:47:52;;;;;;;17.55;7.60;;;15.40;99.90;;;;;;4953590;28;20065;-69
2022/10/31 11:50:48;;;;;;;17.45;7.30;;;15.40;99.90;;;;;;4969443;28;20059;-69
2022/10/31 11:53:17;;;;;;;15.75;6.70;;;15.30;99.90;;;;;;4950684;28;20069;-68
2022/10/31 11:55:44;;;;;;;12.60;6.32;;;15.20;99.90;;;;;;4954847;28;20322;-68
2022/10/31 11:58:26;;;;;;;13.48;7.50;;;15.20;99.90;;;;;;4936416;28;20047;-70
2022/10/31 12:00:56;;;;;;;15.43;7.78;;;15.20;99.90;;;;;;4953196;28;20051;-68
2022/10/31 12:03:22;;;;;;;11.20;6.63;;;15.30;99.90;;;;;;4969120;28;20105;-68
2022/10/31 12:05:59;;;;;;;20.05;7.45;;;15.30;99.90;;;;;;4955051;28;20086;-69
2022/10/31 12:08:30;;;;;;;13.77;7.00;;;15.40;99.90;;;;;;4953816;28;20051;-69
2022/10/31 12:11:20;;;;;;;13.38;6.25;;;15.40;99.90;;;;;;4940655;28;20049;-69
2022/10/31 12:14:29;;;;;;;17.23;7.28;;;15.40;99.90;;;;;;4970159;28;20117;-69
2022/10/31 12:17:04;;;;;;;12.27;5.93;;;15.50;99.90;;;;;;4887730;29;20051;-70
2022/10/31 12:20:07;;;;;;;17.85;6.68;;;15.50;99.90;;;;;;4936636;28;20062;-72
2022/10/31 12:22:41;;;;;;;15.38;7.00;;;15.60;99.90;;;;;;4936164;28;20758;-71
2022/10/31 12:25:19;;;;;;;13.45;6.63;;;15.60;99.90;;;;;;4935620;28;21396;-69
2022/10/31 12:27:55;;;;;;;10.07;5.82;;;15.50;99.90;;;;;;4967629;28;20054;-69
2022/10/31 12:30:53;;;;;;;17.70;7.60;;;15.50;99.90;;;;;;4969382;28;20082;-69
2022/10/31 12:33:46;;;;;;;12.10;7.63;;;15.50;99.90;;;;;;4950101;28;20146;-72
2022/10/31 12:36:21;;;;;;;15.13;7.47;;;15.50;99.90;;;;;;4949204;28;20186;-69
2022/10/31 12:38:58;;;;;;;13.23;6.97;;;15.50;99.90;;;;;;4952546;28;20142;-69
2022/10/31 12:41:45;;;;;;;14.63;7.55;;;15.60;99.90;;;;;;4951212;28;20062;-69
2022/10/31 12:44:28;;;;;;;15.60;6.70;;;15.60;99.90;;;;;;4969097;28;20441;-73
2022/10/31 12:47:31;;;;;;;10.90;6.60;;;15.60;99.90;;;;;;4950017;28;20046;-69
2022/10/31 12:50:21;;;;;;;13.00;6.72;;;15.60;99.90;;;;;;4960982;28;20047;-69
2022/10/31 12:53:09;;;;;;;13.63;6.15;;;15.60;99.90;;;;;;4934115;28;20043;-69
2022/10/31 12:56:01;;;;;;;15.48;6.60;;;15.60;99.90;;;;;;4954678;28;20049;-69
2022/10/31 12:58:32;;;;;;;12.52;5.40;;;15.50;99.90;;;;;;4967943;28;20078;-69
2022/10/31 13:01:20;;;;;;;12.57;5.10;;;15.50;99.90;;;;;;4955865;28;20058;-74
2022/10/31 13:03:52;;;;;;;18.25;6.43;;;15.40;99.90;;;;;;4952875;28;20051;-71